createdAt,value
2019-03-02T00:00:09.879Z,0.00
2019-03-02T00:01:13.297Z,0.00
2019-03-02T00:02:09.866Z,0.00
2019-03-02T00:03:09.858Z,0.00
2019-03-02T00:04:10.079Z,0.00
2019-03-02T00:05:09.845Z,0.00
2019-03-02T00:06:09.839Z,0.00
2019-03-02T00:07:11.248Z,0.00
2019-03-02T00:08:09.824Z,0.00
2019-03-02T00:09:09.818Z,0.00
2019-03-02T00:10:09.945Z,0.00
2019-03-02T00:11:09.806Z,0.00
2019-03-02T00:12:09.799Z,0.00
2019-03-02T00:13:09.792Z,0.00
2019-03-02T00:14:09.786Z,0.00
2019-03-02T00:15:09.779Z,0.00
2019-03-02T00:16:09.772Z,0.00
2019-03-02T00:17:09.766Z,0.00
2019-03-02T00:18:09.759Z,0.00
2019-03-02T00:19:09.753Z,0.00
2019-03-02T00:20:09.748Z,0.00
2019-03-02T00:21:09.742Z,0.00
2019-03-02T00:22:09.735Z,0.00
2019-03-02T00:23:09.727Z,0.00
2019-03-02T00:24:09.720Z,0.00
2019-03-02T00:25:09.715Z,0.00
2019-03-02T00:26:10.288Z,0.00
2019-03-02T00:27:09.703Z,0.00
2019-03-02T00:28:09.693Z,0.00
2019-03-02T00:29:11.048Z,0.00
2019-03-02T00:30:09.684Z,0.00
2019-03-02T00:31:09.676Z,0.00
2019-03-02T00:32:10.506Z,0.00
2019-03-02T00:33:11.426Z,0.00
2019-03-02T00:34:09.657Z,0.00
2019-03-02T00:35:09.650Z,0.00
2019-03-02T00:36:09.643Z,0.00
2019-03-02T00:37:09.637Z,0.00
2019-03-02T00:38:10.096Z,0.00
2019-03-02T00:39:09.626Z,0.00
2019-03-02T00:40:09.620Z,0.00
2019-03-02T00:41:09.609Z,0.00
2019-03-02T00:42:09.603Z,0.00
2019-03-02T00:43:09.597Z,0.00
2019-03-02T00:44:09.590Z,0.00
2019-03-02T00:45:10.638Z,0.00
2019-03-02T00:46:09.578Z,0.00
2019-03-02T00:47:09.572Z,0.00
2019-03-02T00:48:11.101Z,0.00
2019-03-02T00:49:09.559Z,0.00
2019-03-02T00:50:09.551Z,0.00
2019-03-02T00:51:11.257Z,0.00
2019-03-02T00:52:09.540Z,0.00
2019-03-02T00:53:09.533Z,0.00
2019-03-02T00:54:11.360Z,0.00
2019-03-02T00:55:09.521Z,0.00
2019-03-02T00:56:09.517Z,0.00
2019-03-02T00:57:09.506Z,0.00
2019-03-02T00:58:09.501Z,0.00
2019-03-02T00:59:09.495Z,0.00
2019-03-02T01:00:11.677Z,0.00
2019-03-02T01:01:09.481Z,0.00
2019-03-02T01:02:09.475Z,0.00
2019-03-02T01:03:12.034Z,0.00
2019-03-02T01:04:09.460Z,0.00
2019-03-02T01:05:09.455Z,0.00
2019-03-02T01:06:12.695Z,0.00
2019-03-02T01:07:09.442Z,0.00
2019-03-02T01:08:09.439Z,0.00
2019-03-02T01:09:11.700Z,0.00
2019-03-02T01:10:09.424Z,0.00
2019-03-02T01:11:09.435Z,0.00
2019-03-02T01:12:09.866Z,0.00
2019-03-02T01:13:09.403Z,0.00
2019-03-02T01:14:09.397Z,0.00
2019-03-02T01:15:09.391Z,0.00
2019-03-02T01:16:09.384Z,0.00
2019-03-02T01:17:09.378Z,0.00
2019-03-02T01:18:09.371Z,0.00
2019-03-02T01:19:09.365Z,0.00
2019-03-02T01:20:09.358Z,0.00
2019-03-02T01:21:09.352Z,0.00
2019-03-02T01:22:09.346Z,0.00
2019-03-02T01:23:09.339Z,0.00
2019-03-02T01:24:09.332Z,0.00
2019-03-02T01:25:10.372Z,0.00
2019-03-02T01:26:09.320Z,0.00
2019-03-02T01:27:09.314Z,0.00
2019-03-02T01:28:09.672Z,0.00
2019-03-02T01:29:09.301Z,0.00
2019-03-02T01:30:09.294Z,0.00
2019-03-02T01:31:09.289Z,0.00
2019-03-02T01:32:09.282Z,0.00
2019-03-02T01:33:09.275Z,0.00
2019-03-02T01:34:09.270Z,0.00
2019-03-02T01:35:09.262Z,0.00
2019-03-02T01:36:09.256Z,0.00
2019-03-02T01:37:09.250Z,0.00
2019-03-02T01:38:09.242Z,0.00
2019-03-02T01:39:09.236Z,0.00
2019-03-02T01:40:09.229Z,0.00
2019-03-02T01:41:09.225Z,0.00
2019-03-02T01:42:09.217Z,0.00
2019-03-02T01:43:09.211Z,0.00
2019-03-02T01:44:09.204Z,0.00
2019-03-02T01:45:09.198Z,0.00
2019-03-02T01:46:09.193Z,0.00
2019-03-02T01:47:09.186Z,0.00
2019-03-02T01:48:09.178Z,0.00
2019-03-02T01:49:09.173Z,0.00
2019-03-02T01:50:11.933Z,0.00
2019-03-02T01:51:09.160Z,0.00
2019-03-02T01:52:09.153Z,0.00
2019-03-02T01:53:09.869Z,0.00
2019-03-02T01:54:09.140Z,0.00
2019-03-02T01:55:09.135Z,0.00
2019-03-02T01:56:09.127Z,0.00
2019-03-02T01:57:09.121Z,0.00
2019-03-02T01:58:09.114Z,0.00
2019-03-02T01:59:09.108Z,0.00
2019-03-02T02:00:10.519Z,0.00
2019-03-02T02:01:09.094Z,0.00
2019-03-02T02:02:09.089Z,0.00
2019-03-02T02:03:12.115Z,0.00
2019-03-02T02:04:09.075Z,0.00
2019-03-02T02:05:09.070Z,0.00
2019-03-02T02:06:09.063Z,0.00
2019-03-02T02:07:09.056Z,0.00
2019-03-02T02:08:09.049Z,0.00
2019-03-02T02:09:09.042Z,0.00
2019-03-02T02:10:09.037Z,0.00
2019-03-02T02:11:09.031Z,0.00
2019-03-02T02:12:09.023Z,0.00
2019-03-02T02:13:09.017Z,0.00
2019-03-02T02:14:09.013Z,0.00
2019-03-02T02:15:09.005Z,0.00
2019-03-02T02:16:08.998Z,0.00
2019-03-02T02:17:08.994Z,0.00
2019-03-02T02:18:08.983Z,0.00
2019-03-02T02:19:08.978Z,0.00
2019-03-02T02:20:11.053Z,0.00
2019-03-02T02:21:08.964Z,0.00
2019-03-02T02:22:08.958Z,0.00
2019-03-02T02:23:09.922Z,0.00
2019-03-02T02:24:08.945Z,0.00
2019-03-02T02:25:08.937Z,0.00
2019-03-02T02:26:11.286Z,0.00
2019-03-02T02:27:08.925Z,0.00
2019-03-02T02:28:08.917Z,0.00
2019-03-02T02:29:09.561Z,0.00
2019-03-02T02:30:08.906Z,0.00
2019-03-02T02:31:08.900Z,0.00
2019-03-02T02:32:08.957Z,0.00
2019-03-02T02:33:08.886Z,0.00
2019-03-02T02:34:08.879Z,0.00
2019-03-02T02:35:08.874Z,0.00
2019-03-02T02:36:08.867Z,0.00
2019-03-02T02:37:08.865Z,0.00
2019-03-02T02:38:11.065Z,0.00
2019-03-02T02:39:08.847Z,0.00
2019-03-02T02:40:12.489Z,0.00
2019-03-02T02:41:08.833Z,0.00
2019-03-02T02:42:08.827Z,0.00
2019-03-02T02:43:08.821Z,0.00
2019-03-02T02:44:08.813Z,0.00
2019-03-02T02:45:11.042Z,0.00
2019-03-02T02:46:08.801Z,0.00
2019-03-02T02:47:12.207Z,0.00
2019-03-02T02:48:08.787Z,0.00
2019-03-02T02:49:10.115Z,0.00
2019-03-02T02:50:08.778Z,0.00
2019-03-02T02:51:10.082Z,0.00
2019-03-02T02:52:08.760Z,0.00
2019-03-02T02:53:08.755Z,0.00
2019-03-02T02:54:08.755Z,0.00
2019-03-02T02:55:08.742Z,0.00
2019-03-02T02:56:08.733Z,0.00
2019-03-02T02:57:08.728Z,0.00
2019-03-02T02:58:12.709Z,0.00
2019-03-02T02:59:08.715Z,0.00
2019-03-02T03:00:12.023Z,0.00
2019-03-02T03:01:08.701Z,0.00
2019-03-02T03:02:10.915Z,0.00
2019-03-02T03:03:08.690Z,0.00
2019-03-02T03:04:08.685Z,0.00
2019-03-02T03:05:10.041Z,0.00
2019-03-02T03:06:08.673Z,0.00
2019-03-02T03:07:12.294Z,0.00
2019-03-02T03:08:08.665Z,0.00
2019-03-02T03:09:09.735Z,0.00
2019-03-02T03:10:08.644Z,0.00
2019-03-02T03:11:08.642Z,0.00
2019-03-02T03:12:08.637Z,0.00
2019-03-02T03:13:08.623Z,0.00
2019-03-02T03:14:08.615Z,0.00
2019-03-02T03:15:08.611Z,0.00
2019-03-02T03:16:11.721Z,0.00
2019-03-02T03:17:08.607Z,0.00
2019-03-02T03:18:12.565Z,0.00
2019-03-02T03:19:08.584Z,0.00
2019-03-02T03:20:10.381Z,0.00
2019-03-02T03:21:08.570Z,0.00
2019-03-02T03:22:09.164Z,0.00
2019-03-02T03:23:08.559Z,0.00
2019-03-02T03:24:08.550Z,0.00
2019-03-02T03:25:08.559Z,0.00
2019-03-02T03:26:08.537Z,0.00
2019-03-02T03:27:08.975Z,0.00
2019-03-02T03:28:08.524Z,0.00
2019-03-02T03:29:09.672Z,0.00
2019-03-02T03:30:08.510Z,0.00
2019-03-02T03:31:22.193Z,0.00
2019-03-02T03:32:11.637Z,0.00
2019-03-02T03:33:08.509Z,0.00
2019-03-02T03:34:08.487Z,0.00
2019-03-02T03:35:15.492Z,0.00
2019-03-02T03:36:08.471Z,0.00
2019-03-02T03:37:12.741Z,0.00
2019-03-02T03:38:08.461Z,0.00
2019-03-02T03:39:09.223Z,0.00
2019-03-02T03:40:08.444Z,0.00
2019-03-02T03:41:08.442Z,0.00
2019-03-02T03:42:08.432Z,0.00
2019-03-02T03:43:08.428Z,0.00
2019-03-02T03:44:08.421Z,0.00
2019-03-02T03:45:08.412Z,0.00
2019-03-02T03:46:08.404Z,0.00
2019-03-02T03:47:08.399Z,0.00
2019-03-02T03:48:12.803Z,0.00
2019-03-02T03:49:08.387Z,0.00
2019-03-02T03:50:09.198Z,0.00
2019-03-02T03:51:08.381Z,0.00
2019-03-02T03:52:09.317Z,0.00
2019-03-02T03:53:08.360Z,0.00
2019-03-02T03:54:08.952Z,0.00
2019-03-02T03:55:08.348Z,0.00
2019-03-02T03:56:08.340Z,0.00
2019-03-02T03:57:08.333Z,0.00
2019-03-02T03:58:08.336Z,0.00
2019-03-02T03:59:08.319Z,0.00
2019-03-02T04:00:08.312Z,0.00
2019-03-02T04:01:13.012Z,0.00
2019-03-02T04:02:08.305Z,0.00
2019-03-02T04:03:09.067Z,0.00
2019-03-02T04:04:08.287Z,0.00
2019-03-02T04:05:09.792Z,0.00
2019-03-02T04:06:08.273Z,0.00
2019-03-02T04:07:08.295Z,0.00
2019-03-02T04:08:08.258Z,0.00
2019-03-02T04:09:09.922Z,0.00
2019-03-02T04:10:08.247Z,0.00
2019-03-02T04:11:08.243Z,0.00
2019-03-02T04:12:08.235Z,0.00
2019-03-02T04:13:08.227Z,0.00
2019-03-02T04:14:08.220Z,0.00
2019-03-02T04:15:08.212Z,0.00
2019-03-02T04:16:08.205Z,0.00
2019-03-02T04:17:08.199Z,0.00
2019-03-02T04:18:08.194Z,0.00
2019-03-02T04:19:08.189Z,0.00
2019-03-02T04:20:12.576Z,0.00
2019-03-02T04:21:08.172Z,0.00
2019-03-02T04:22:08.220Z,0.00
2019-03-02T04:23:08.165Z,0.00
2019-03-02T04:24:08.177Z,0.00
2019-03-02T04:25:08.148Z,0.00
2019-03-02T04:26:08.141Z,0.00
2019-03-02T04:27:11.042Z,0.00
2019-03-02T04:28:08.127Z,0.00
2019-03-02T04:29:10.023Z,0.00
2019-03-02T04:30:08.113Z,0.00
2019-03-02T04:31:09.089Z,0.00
2019-03-02T04:32:08.101Z,0.00
2019-03-02T04:33:08.095Z,0.00
2019-03-02T04:34:08.090Z,0.00
2019-03-02T04:35:08.081Z,0.00
2019-03-02T04:36:10.172Z,0.00
2019-03-02T04:37:08.082Z,0.00
2019-03-02T04:38:08.061Z,0.00
2019-03-02T04:39:09.578Z,0.00
2019-03-02T04:40:08.048Z,0.00
2019-03-02T04:41:08.043Z,0.00
2019-03-02T04:42:08.034Z,0.00
2019-03-02T04:43:08.028Z,0.00
2019-03-02T04:44:08.021Z,0.00
2019-03-02T04:45:08.015Z,0.00
2019-03-02T04:46:08.009Z,0.00
2019-03-02T04:47:08.004Z,0.00
2019-03-02T04:48:07.997Z,0.00
2019-03-02T04:49:10.978Z,0.00
2019-03-02T04:50:07.982Z,0.00
2019-03-02T04:51:07.977Z,0.00
2019-03-02T04:52:07.969Z,0.00
2019-03-02T04:53:07.964Z,0.00
2019-03-02T04:54:07.955Z,0.00
2019-03-02T04:55:09.437Z,0.00
2019-03-02T04:56:07.943Z,0.00
2019-03-02T04:57:07.937Z,0.00
2019-03-02T04:58:08.601Z,0.00
2019-03-02T04:59:07.924Z,0.00
2019-03-02T05:00:07.916Z,0.00
2019-03-02T05:01:07.952Z,0.00
2019-03-02T05:02:07.904Z,0.00
2019-03-02T05:03:07.896Z,0.00
2019-03-02T05:04:07.889Z,0.00
2019-03-02T05:05:08.448Z,0.00
2019-03-02T05:06:07.877Z,0.00
2019-03-02T05:07:07.872Z,0.00
2019-03-02T05:08:07.863Z,0.00
2019-03-02T05:09:07.862Z,0.00
2019-03-02T05:10:07.852Z,0.00
2019-03-02T05:11:07.844Z,0.00
2019-03-02T05:12:07.838Z,0.00
2019-03-02T05:13:07.832Z,0.00
2019-03-02T05:14:07.824Z,0.00
2019-03-02T05:15:07.819Z,0.00
2019-03-02T05:16:07.811Z,0.00
2019-03-02T05:17:08.456Z,0.00
2019-03-02T05:18:07.798Z,0.00
2019-03-02T05:19:07.793Z,0.00
2019-03-02T05:20:07.785Z,0.00
2019-03-02T05:21:07.777Z,0.00
2019-03-02T05:22:07.771Z,0.00
2019-03-02T05:23:07.766Z,0.00
2019-03-02T05:24:09.180Z,0.00
2019-03-02T05:25:07.754Z,0.00
2019-03-02T05:26:07.746Z,0.00
2019-03-02T05:27:07.740Z,0.00
2019-03-02T05:28:08.129Z,0.00
2019-03-02T05:29:07.725Z,0.00
2019-03-02T05:30:07.725Z,0.00
2019-03-02T05:31:07.719Z,0.00
2019-03-02T05:32:07.706Z,0.00
2019-03-02T05:33:07.699Z,0.00
2019-03-02T05:34:07.693Z,0.00
2019-03-02T05:35:07.688Z,0.00
2019-03-02T05:36:07.679Z,0.00
2019-03-02T05:37:07.675Z,0.00
2019-03-02T05:38:07.667Z,0.00
2019-03-02T05:39:07.660Z,0.00
2019-03-02T05:40:07.653Z,0.00
2019-03-02T05:41:07.647Z,0.00
2019-03-02T05:42:10.435Z,0.00
2019-03-02T05:43:07.636Z,0.00
2019-03-02T05:44:07.627Z,0.00
2019-03-02T05:45:07.622Z,0.00
2019-03-02T05:46:07.614Z,0.00
2019-03-02T05:47:07.608Z,0.00
2019-03-02T05:48:07.603Z,0.00
2019-03-02T05:49:07.598Z,0.00
2019-03-02T05:50:07.590Z,0.00
2019-03-02T05:51:07.758Z,0.00
2019-03-02T05:52:07.576Z,0.00
2019-03-02T05:53:07.570Z,0.00
2019-03-02T05:54:07.649Z,4.00
2019-03-02T05:55:07.557Z,4.00
2019-03-02T05:56:07.551Z,0.00
2019-03-02T05:57:07.544Z,0.00
2019-03-02T05:58:07.537Z,4.00
2019-03-02T05:59:07.531Z,4.00
2019-03-02T06:00:07.523Z,4.00
2019-03-02T06:01:07.518Z,8.00
2019-03-02T06:02:07.511Z,4.00
2019-03-02T06:03:07.505Z,8.00
2019-03-02T06:04:07.497Z,4.00
2019-03-02T06:05:07.494Z,8.00
2019-03-02T06:06:07.485Z,8.00
2019-03-02T06:07:07.480Z,8.00
2019-03-02T06:08:07.473Z,12.00
2019-03-02T06:09:07.959Z,8.00
2019-03-02T06:10:07.461Z,12.00
2019-03-02T06:11:07.456Z,12.00
2019-03-02T06:12:07.446Z,16.00
2019-03-02T06:13:07.441Z,20.00
2019-03-02T06:14:07.968Z,16.00
2019-03-02T06:15:07.626Z,20.00
2019-03-02T06:16:07.423Z,20.00
2019-03-02T06:17:07.420Z,24.00
2019-03-02T06:18:07.671Z,24.00
2019-03-02T06:19:07.403Z,28.00
2019-03-02T06:20:07.396Z,28.00
2019-03-02T06:21:07.659Z,36.00
2019-03-02T06:22:07.384Z,32.00
2019-03-02T06:23:07.377Z,40.00
2019-03-02T06:24:07.369Z,40.00
2019-03-02T06:25:07.363Z,44.00
2019-03-02T06:26:07.357Z,48.00
2019-03-02T06:27:07.812Z,52.00
2019-03-02T06:28:07.343Z,56.00
2019-03-02T06:29:07.338Z,68.00
2019-03-02T06:30:08.394Z,92.00
2019-03-02T06:31:07.327Z,124.00
2019-03-02T06:32:07.319Z,152.00
2019-03-02T06:33:08.465Z,196.00
2019-03-02T06:34:07.306Z,228.00
2019-03-02T06:35:07.304Z,228.00
2019-03-02T06:36:08.774Z,228.00
2019-03-02T06:37:07.285Z,244.00
2019-03-02T06:38:07.282Z,268.00
2019-03-02T06:39:07.860Z,312.00
2019-03-02T06:40:07.268Z,352.00
2019-03-02T06:41:07.260Z,356.00
2019-03-02T06:42:09.829Z,372.00
2019-03-02T06:43:07.250Z,384.00
2019-03-02T06:44:07.241Z,380.00
2019-03-02T06:45:08.964Z,408.00
2019-03-02T06:46:07.230Z,460.00
2019-03-02T06:47:07.224Z,488.00
2019-03-02T06:48:09.617Z,500.00
2019-03-02T06:49:07.636Z,512.00
2019-03-02T06:50:07.204Z,532.00
2019-03-02T06:51:07.783Z,552.00
2019-03-02T06:52:07.192Z,584.00
2019-03-02T06:53:07.187Z,632.00
2019-03-02T06:54:08.950Z,660.00
2019-03-02T06:55:07.173Z,660.00
2019-03-02T06:56:07.165Z,684.00
2019-03-02T06:57:07.160Z,700.00
2019-03-02T06:58:07.152Z,724.00
2019-03-02T06:59:07.147Z,756.00
2019-03-02T07:00:07.140Z,760.00
2019-03-02T07:01:07.137Z,764.00
2019-03-02T07:02:07.127Z,780.00
2019-03-02T07:03:10.162Z,792.00
2019-03-02T07:04:07.113Z,832.00
2019-03-02T07:05:07.544Z,872.00
2019-03-02T07:06:08.590Z,916.00
2019-03-02T07:07:07.097Z,956.00
2019-03-02T07:08:07.088Z,980.00
2019-03-02T07:09:09.582Z,984.00
2019-03-02T07:10:07.076Z,976.00
2019-03-02T07:11:07.070Z,944.00
2019-03-02T07:12:09.468Z,968.00
2019-03-02T07:13:07.056Z,992.00
2019-03-02T07:14:07.057Z,996.00
2019-03-02T07:15:08.296Z,1028.00
2019-03-02T07:16:07.036Z,1056.00
2019-03-02T07:17:07.031Z,980.00
2019-03-02T07:18:08.035Z,896.00
2019-03-02T07:19:07.019Z,912.00
2019-03-02T07:20:07.011Z,960.00
2019-03-02T07:21:07.006Z,1036.00
2019-03-02T07:22:07.000Z,1024.00
2019-03-02T07:23:06.993Z,992.00
2019-03-02T07:24:06.987Z,1040.00
2019-03-02T07:25:06.981Z,1084.00
2019-03-02T07:26:06.978Z,1100.00
2019-03-02T07:27:06.970Z,1144.00
2019-03-02T07:28:07.451Z,1096.00
2019-03-02T07:29:06.956Z,1132.00
2019-03-02T07:30:06.950Z,1244.00
2019-03-02T07:31:06.945Z,1296.00
2019-03-02T07:32:06.936Z,1200.00
2019-03-02T07:33:06.931Z,1284.00
2019-03-02T07:34:08.705Z,1204.00
2019-03-02T07:35:06.919Z,1112.00
2019-03-02T07:36:06.912Z,1156.00
2019-03-02T07:37:09.090Z,1280.00
2019-03-02T07:38:08.304Z,1292.00
2019-03-02T07:39:06.894Z,1276.00
2019-03-02T07:40:09.057Z,1208.00
2019-03-02T07:41:07.730Z,1280.00
2019-03-02T07:42:06.876Z,1392.00
2019-03-02T07:43:09.676Z,1540.00
2019-03-02T07:44:06.864Z,1540.00
2019-03-02T07:45:06.857Z,1604.00
2019-03-02T07:46:08.151Z,1568.00
2019-03-02T07:47:06.847Z,1468.00
2019-03-02T07:48:06.839Z,1428.00
2019-03-02T07:49:09.138Z,1432.00
2019-03-02T07:50:06.828Z,1456.00
2019-03-02T07:51:06.821Z,1548.00
2019-03-02T07:52:06.814Z,1580.00
2019-03-02T07:53:06.811Z,1580.00
2019-03-02T07:54:07.368Z,1528.00
2019-03-02T07:55:06.797Z,1460.00
2019-03-02T07:56:06.790Z,1412.00
2019-03-02T07:57:08.764Z,1396.00
2019-03-02T07:58:06.789Z,1464.00
2019-03-02T07:59:06.773Z,1480.00
2019-03-02T08:00:06.769Z,1496.00
2019-03-02T08:01:06.760Z,1428.00
2019-03-02T08:02:07.420Z,1336.00
2019-03-02T08:03:06.748Z,1312.00
2019-03-02T08:04:06.740Z,1268.00
2019-03-02T08:05:06.736Z,1244.00
2019-03-02T08:06:06.730Z,1240.00
2019-03-02T08:07:06.724Z,1276.00
2019-03-02T08:08:07.093Z,1264.00
2019-03-02T08:09:06.711Z,1192.00
2019-03-02T08:10:06.706Z,1248.00
2019-03-02T08:11:06.700Z,1324.00
2019-03-02T08:12:06.696Z,1380.00
2019-03-02T08:13:06.688Z,1444.00
2019-03-02T08:14:08.855Z,1460.00
2019-03-02T08:15:06.676Z,1460.00
2019-03-02T08:16:06.669Z,1408.00
2019-03-02T08:17:09.786Z,1332.00
2019-03-02T08:18:06.658Z,1376.00
2019-03-02T08:19:06.653Z,1412.00
2019-03-02T08:20:06.645Z,1452.00
2019-03-02T08:21:06.640Z,1448.00
2019-03-02T08:22:07.795Z,1404.00
2019-03-02T08:23:06.629Z,1380.00
2019-03-02T08:24:06.622Z,1376.00
2019-03-02T08:25:06.615Z,1368.00
2019-03-02T08:26:06.610Z,1340.00
2019-03-02T08:27:06.604Z,1284.00
2019-03-02T08:28:06.792Z,1292.00
2019-03-02T08:29:06.592Z,1348.00
2019-03-02T08:30:06.589Z,1376.00
2019-03-02T08:31:08.972Z,1388.00
2019-03-02T08:32:06.574Z,1408.00
2019-03-02T08:33:06.567Z,1400.00
2019-03-02T08:34:09.716Z,1400.00
2019-03-02T08:35:06.557Z,1456.00
2019-03-02T08:36:06.549Z,1444.00
2019-03-02T08:37:06.545Z,1464.00
2019-03-02T08:38:06.540Z,1444.00
2019-03-02T08:39:06.826Z,1464.00
2019-03-02T08:40:06.526Z,1440.00
2019-03-02T08:41:06.521Z,1456.00
2019-03-02T08:42:08.831Z,1484.00
2019-03-02T08:43:06.508Z,1480.00
2019-03-02T08:44:06.502Z,1468.00
2019-03-02T08:45:06.497Z,1436.00
2019-03-02T08:46:07.422Z,1476.00
2019-03-02T08:47:09.107Z,1580.00
2019-03-02T08:48:06.480Z,1484.00
2019-03-02T08:49:07.125Z,1488.00
2019-03-02T08:50:06.467Z,1612.00
2019-03-02T08:51:06.461Z,1664.00
2019-03-02T08:52:06.455Z,1580.00
2019-03-02T08:53:06.450Z,1584.00
2019-03-02T08:54:06.445Z,1556.00
2019-03-02T08:55:06.439Z,1376.00
2019-03-02T08:56:09.892Z,1408.00
2019-03-02T08:57:06.426Z,1460.00
2019-03-02T08:58:06.421Z,1552.00
2019-03-02T08:59:06.416Z,1624.00
2019-03-02T09:00:06.409Z,1504.00
2019-03-02T09:01:06.405Z,1356.00
2019-03-02T09:02:06.396Z,1300.00
2019-03-02T09:03:06.396Z,1372.00
2019-03-02T09:04:06.385Z,1484.00
2019-03-02T09:05:06.379Z,1488.00
2019-03-02T09:06:11.525Z,1492.00
2019-03-02T09:07:07.900Z,1504.00
2019-03-02T09:08:06.365Z,1544.00
2019-03-02T09:09:06.447Z,1632.00
2019-03-02T09:10:06.351Z,1704.00
2019-03-02T09:11:06.345Z,1648.00
2019-03-02T09:12:06.338Z,1532.00
2019-03-02T09:13:06.333Z,1576.00
2019-03-02T09:14:09.548Z,1652.00
2019-03-02T09:15:06.327Z,1868.00
2019-03-02T09:16:06.803Z,1904.00
2019-03-02T09:17:06.310Z,1784.00
2019-03-02T09:18:06.304Z,1828.00
2019-03-02T09:19:06.298Z,2040.00
2019-03-02T09:20:06.291Z,2052.00
2019-03-02T09:21:08.943Z,2000.00
2019-03-02T09:22:06.313Z,2100.00
2019-03-02T09:23:06.275Z,2160.00
2019-03-02T09:24:09.375Z,2076.00
2019-03-02T09:25:06.262Z,2104.00
2019-03-02T09:26:06.257Z,2192.00
2019-03-02T09:27:06.251Z,2172.00
2019-03-02T09:28:06.249Z,2128.00
2019-03-02T09:29:06.240Z,2136.00
2019-03-02T09:30:06.234Z,2160.00
2019-03-02T09:31:06.228Z,2236.00
2019-03-02T09:32:06.222Z,2296.00
2019-03-02T09:33:06.216Z,2172.00
2019-03-02T09:34:06.215Z,2084.00
2019-03-02T09:35:06.206Z,2132.00
2019-03-02T09:36:06.199Z,2196.00
2019-03-02T09:37:07.104Z,2232.00
2019-03-02T09:38:06.188Z,2248.00
2019-03-02T09:39:06.184Z,2248.00
2019-03-02T09:40:06.176Z,2124.00
2019-03-02T09:41:06.175Z,2056.00
2019-03-02T09:42:06.165Z,2088.00
2019-03-02T09:43:06.159Z,2084.00
2019-03-02T09:44:06.152Z,2080.00
2019-03-02T09:45:07.633Z,2100.00
2019-03-02T09:46:07.461Z,1992.00
2019-03-02T09:47:09.025Z,1944.00
2019-03-02T09:48:06.129Z,1912.00
2019-03-02T09:49:07.386Z,1940.00
2019-03-02T09:50:06.120Z,1972.00
2019-03-02T09:51:06.116Z,1904.00
2019-03-02T09:52:06.107Z,1844.00
2019-03-02T09:53:06.102Z,1960.00
2019-03-02T09:54:06.097Z,2116.00
2019-03-02T09:55:06.091Z,2192.00
2019-03-02T09:56:06.085Z,2168.00
2019-03-02T09:57:06.083Z,2188.00
2019-03-02T09:58:06.436Z,2236.00
2019-03-02T09:59:06.068Z,2284.00
2019-03-02T10:00:06.062Z,2308.00
2019-03-02T10:01:06.056Z,2332.00
2019-03-02T10:02:06.054Z,2448.00
2019-03-02T10:03:06.046Z,2644.00
2019-03-02T10:04:06.295Z,2724.00
2019-03-02T10:05:06.034Z,2680.00
2019-03-02T10:06:06.029Z,2556.00
2019-03-02T10:07:06.023Z,2464.00
2019-03-02T10:08:06.017Z,2428.00
2019-03-02T10:09:06.012Z,2464.00
2019-03-02T10:10:06.006Z,2564.00
2019-03-02T10:11:07.210Z,2648.00
2019-03-02T10:12:05.999Z,2624.00
2019-03-02T10:13:08.033Z,2536.00
2019-03-02T10:14:05.984Z,2428.00
2019-03-02T10:15:05.981Z,2340.00
2019-03-02T10:16:05.987Z,2208.00
2019-03-02T10:17:05.967Z,2072.00
2019-03-02T10:18:05.961Z,1976.00
2019-03-02T10:19:05.957Z,1920.00
2019-03-02T10:20:06.571Z,1932.00
2019-03-02T10:21:05.946Z,1948.00
2019-03-02T10:22:05.939Z,1952.00
2019-03-02T10:23:06.896Z,1960.00
2019-03-02T10:24:05.927Z,1956.00
2019-03-02T10:25:05.923Z,1900.00
2019-03-02T10:26:07.294Z,1872.00
2019-03-02T10:27:06.111Z,1816.00
2019-03-02T10:28:05.905Z,1804.00
2019-03-02T10:29:06.924Z,1992.00
2019-03-02T10:30:05.896Z,2208.00
2019-03-02T10:31:06.096Z,2384.00
2019-03-02T10:32:05.883Z,2484.00
2019-03-02T10:33:05.879Z,2556.00
2019-03-02T10:34:06.413Z,2580.00
2019-03-02T10:35:05.869Z,2600.00
2019-03-02T10:36:05.863Z,2584.00
2019-03-02T10:37:07.283Z,2576.00
2019-03-02T10:38:05.852Z,2640.00
2019-03-02T10:39:05.848Z,2700.00
2019-03-02T10:40:08.772Z,2668.00
2019-03-02T10:41:07.300Z,2680.00
2019-03-02T10:42:05.830Z,2732.00
2019-03-02T10:43:07.383Z,2796.00
2019-03-02T10:44:05.819Z,2820.00
2019-03-02T10:45:05.816Z,2812.00
2019-03-02T10:46:05.811Z,2824.00
2019-03-02T10:47:05.803Z,2768.00
2019-03-02T10:48:05.799Z,2736.00
2019-03-02T10:49:06.954Z,2724.00
2019-03-02T10:50:05.788Z,2668.00
2019-03-02T10:51:05.784Z,2644.00
2019-03-02T10:52:05.777Z,2772.00
2019-03-02T10:53:05.771Z,2708.00
2019-03-02T10:54:05.766Z,2624.00
2019-03-02T10:55:08.461Z,2584.00
2019-03-02T10:56:06.062Z,2580.00
2019-03-02T10:57:05.751Z,2560.00
2019-03-02T10:58:05.752Z,2644.00
2019-03-02T10:59:05.740Z,2644.00
2019-03-02T11:00:05.734Z,2596.00
2019-03-02T11:01:07.189Z,2588.00
2019-03-02T11:02:05.725Z,2548.00
2019-03-02T11:03:05.719Z,2592.00
2019-03-02T11:04:08.373Z,2612.00
2019-03-02T11:05:05.708Z,2652.00
2019-03-02T11:06:07.157Z,2536.00
2019-03-02T11:07:09.415Z,2340.00
2019-03-02T11:08:05.694Z,2144.00
2019-03-02T11:09:05.688Z,2040.00
2019-03-02T11:10:05.682Z,2088.00
2019-03-02T11:11:05.678Z,2060.00
2019-03-02T11:12:06.817Z,2096.00
2019-03-02T11:13:05.666Z,2128.00
2019-03-02T11:14:05.663Z,2188.00
2019-03-02T11:15:07.574Z,2272.00
2019-03-02T11:16:05.652Z,2352.00
2019-03-02T11:17:05.647Z,2432.00
2019-03-02T11:18:05.644Z,2404.00
2019-03-02T11:19:07.969Z,2376.00
2019-03-02T11:20:05.631Z,2340.00
2019-03-02T11:21:05.626Z,2352.00
2019-03-02T11:22:05.620Z,2448.00
2019-03-02T11:23:05.616Z,2492.00
2019-03-02T11:24:05.611Z,2508.00
2019-03-02T11:25:05.607Z,2472.00
2019-03-02T11:26:05.599Z,2504.00
2019-03-02T11:27:05.595Z,2528.00
2019-03-02T11:28:05.589Z,2520.00
2019-03-02T11:29:05.585Z,2516.00
2019-03-02T11:30:05.579Z,2588.00
2019-03-02T11:31:05.574Z,2632.00
2019-03-02T11:32:05.568Z,2736.00
2019-03-02T11:33:05.564Z,2848.00
2019-03-02T11:34:05.558Z,3000.00
2019-03-02T11:35:06.891Z,3176.00
2019-03-02T11:36:05.549Z,3252.00
2019-03-02T11:37:05.543Z,3248.00
2019-03-02T11:38:05.541Z,3200.00
2019-03-02T11:39:05.532Z,3084.00
2019-03-02T11:40:05.527Z,2976.00
2019-03-02T11:41:09.208Z,2928.00
2019-03-02T11:42:05.517Z,3028.00
2019-03-02T11:43:05.516Z,3136.00
2019-03-02T11:44:05.506Z,3292.00
2019-03-02T11:45:05.501Z,3452.00
2019-03-02T11:46:05.496Z,3500.00
2019-03-02T11:47:05.491Z,3584.00
2019-03-02T11:48:09.231Z,3772.00
2019-03-02T11:49:05.482Z,4068.00
2019-03-02T11:50:05.494Z,4348.00
2019-03-02T11:51:05.472Z,4416.00
2019-03-02T11:52:05.467Z,4312.00
2019-03-02T11:53:05.460Z,4256.00
2019-03-02T11:54:05.456Z,4328.00
2019-03-02T11:55:05.459Z,4552.00
2019-03-02T11:56:06.606Z,4932.00
2019-03-02T11:57:07.798Z,5404.00
2019-03-02T11:58:05.439Z,5720.00
2019-03-02T11:59:06.043Z,5880.00
2019-03-02T12:00:05.426Z,6028.00
2019-03-02T12:01:05.423Z,6228.00
2019-03-02T12:02:15.173Z,6412.00
2019-03-02T12:03:05.412Z,7292.00
2019-03-02T12:04:05.415Z,7996.00
2019-03-02T12:05:05.401Z,8636.00
2019-03-02T12:06:05.918Z,9128.00
2019-03-02T12:07:05.392Z,9344.00
2019-03-02T12:08:05.388Z,9424.00
2019-03-02T12:09:05.385Z,9480.00
2019-03-02T12:10:06.276Z,9572.00
2019-03-02T12:11:07.055Z,9692.00
2019-03-02T12:12:05.371Z,9580.00
2019-03-02T12:13:05.366Z,9412.00
2019-03-02T12:14:06.069Z,9108.00
2019-03-02T12:15:05.356Z,8668.00
2019-03-02T12:16:05.353Z,8404.00
2019-03-02T12:17:06.044Z,8308.00
2019-03-02T12:18:05.345Z,8396.00
2019-03-02T12:19:05.438Z,8260.00
2019-03-02T12:20:08.879Z,8040.00
2019-03-02T12:21:05.332Z,7940.00
2019-03-02T12:22:05.329Z,8160.00
2019-03-02T12:23:05.325Z,8172.00
2019-03-02T12:24:14.543Z,8300.00
2019-03-02T12:25:05.315Z,8120.00
2019-03-02T12:26:07.869Z,7644.00
2019-03-02T12:27:05.309Z,7300.00
2019-03-02T12:28:05.304Z,7168.00
2019-03-02T12:29:09.116Z,7212.00
2019-03-02T12:30:05.297Z,7320.00
2019-03-02T12:31:05.296Z,7372.00
2019-03-02T12:32:07.560Z,7776.00
2019-03-02T12:33:05.286Z,8016.00
2019-03-02T12:34:07.455Z,7696.00
2019-03-02T12:35:05.278Z,7924.00
2019-03-02T12:36:05.278Z,7768.00
2019-03-02T12:37:05.269Z,8344.00
2019-03-02T12:38:07.297Z,7912.00
2019-03-02T12:39:07.168Z,8392.00
2019-03-02T12:40:05.257Z,8452.00
2019-03-02T12:41:05.255Z,8040.00
2019-03-02T12:42:05.250Z,7084.00